sensor_id;sensor_type;location;lat;lon;timestamp;P1;durP1;ratioP1;P2;durP2;ratioP2
22284;SDS011;11311;52.192;20.900;2022-10-13T00:01:22;48.42;;;25.80;;
22284;SDS011;11311;52.192;20.900;2022-10-13T00:03:52;39.75;;;22.58;;
22284;SDS011;11311;52.192;20.900;2022-10-13T00:06:22;42.25;;;22.20;;
22284;SDS011;11311;52.192;20.900;2022-10-13T00:08:52;42.35;;;22.17;;
22284;SDS011;11311;52.192;20.900;2022-10-13T00:11:22;36.70;;;21.13;;
22284;SDS011;11311;52.192;20.900;2022-10-13T00:13:53;39.08;;;18.10;;
22284;SDS011;11311;52.192;20.900;2022-10-13T00:16:23;40.28;;;19.40;;
22284;SDS011;11311;52.192;20.900;2022-10-13T00:18:51;41.78;;;19.77;;
22284;SDS011;11311;52.192;20.900;2022-10-13T00:21:21;38.03;;;17.23;;
22284;SDS011;11311;52.192;20.900;2022-10-13T00:23:51;36.60;;;17.58;;
22284;SDS011;11311;52.192;20.900;2022-10-13T00:26:22;36.60;;;20.25;;
22284;SDS011;11311;52.192;20.900;2022-10-13T00:28:52;48.45;;;23.38;;
22284;SDS011;11311;52.192;20.900;2022-10-13T00:31:22;43.40;;;27.67;;
22284;SDS011;11311;52.192;20.900;2022-10-13T00:33:52;56.45;;;28.60;;
22284;SDS011;11311;52.192;20.900;2022-10-13T00:36:22;48.60;;;29.25;;
22284;SDS011;11311;52.192;20.900;2022-10-13T00:38:51;53.53;;;28.30;;
22284;SDS011;11311;52.192;20.900;2022-10-13T00:41:22;55.13;;;32.60;;
22284;SDS011;11311;52.192;20.900;2022-10-13T00:43:51;52.78;;;32.70;;
22284;SDS011;11311;52.192;20.900;2022-10-13T00:46:24;62.15;;;36.22;;
22284;SDS011;11311;52.192;20.900;2022-10-13T00:48:58;61.35;;;33.97;;
22284;SDS011;11311;52.192;20.900;2022-10-13T00:51:29;55.20;;;34.33;;
22284;SDS011;11311;52.192;20.900;2022-10-13T00:54:00;53.45;;;28.25;;
22284;SDS011;11311;52.192;20.900;2022-10-13T00:56:32;56.00;;;26.55;;
22284;SDS011;11311;52.192;20.900;2022-10-13T00:59:02;42.45;;;20.33;;
22284;SDS011;11311;52.192;20.900;2022-10-13T01:01:31;55.38;;;28.17;;
22284;SDS011;11311;52.192;20.900;2022-10-13T01:03:59;55.33;;;28.13;;
22284;SDS011;11311;52.192;20.900;2022-10-13T01:06:28;45.38;;;26.67;;
22284;SDS011;11311;52.192;20.900;2022-10-13T01:08:57;50.60;;;29.25;;
22284;SDS011;11311;52.192;20.900;2022-10-13T01:11:37;44.55;;;23.38;;
22284;SDS011;11311;52.192;20.900;2022-10-13T01:14:17;44.60;;;28.52;;
22284;SDS011;11311;52.192;20.900;2022-10-13T01:16:49;49.53;;;27.55;;
22284;SDS011;11311;52.192;20.900;2022-10-13T01:19:30;49.08;;;26.45;;
22284;SDS011;11311;52.192;20.900;2022-10-13T01:22:24;47.35;;;28.45;;
22284;SDS011;11311;52.192;20.900;2022-10-13T01:25:02;54.55;;;29.80;;
22284;SDS011;11311;52.192;20.900;2022-10-13T01:27:46;49.13;;;28.45;;
22284;SDS011;11311;52.192;20.900;2022-10-13T01:30:20;51.58;;;30.33;;
22284;SDS011;11311;52.192;20.900;2022-10-13T01:32:53;49.78;;;28.35;;
22284;SDS011;11311;52.192;20.900;2022-10-13T01:35:30;55.70;;;30.65;;
22284;SDS011;11311;52.192;20.900;2022-10-13T01:38:04;57.03;;;29.70;;
22284;SDS011;11311;52.192;20.900;2022-10-13T01:40:37;51.63;;;28.95;;
22284;SDS011;11311;52.192;20.900;2022-10-13T01:43:09;53.88;;;31.60;;
22284;SDS011;11311;52.192;20.900;2022-10-13T01:45:41;57.15;;;32.60;;
22284;SDS011;11311;52.192;20.900;2022-10-13T01:48:13;56.60;;;33.63;;
22284;SDS011;11311;52.192;20.900;2022-10-13T01:50:48;52.03;;;33.63;;
22284;SDS011;11311;52.192;20.900;2022-10-13T01:53:17;56.60;;;33.03;;
22284;SDS011;11311;52.192;20.900;2022-10-13T01:55:52;54.90;;;35.45;;
22284;SDS011;11311;52.192;20.900;2022-10-13T01:58:22;55.42;;;35.47;;
22284;SDS011;11311;52.192;20.900;2022-10-13T02:00:59;57.90;;;32.67;;
22284;SDS011;11311;52.192;20.900;2022-10-13T02:03:34;51.80;;;32.97;;
22284;SDS011;11311;52.192;20.900;2022-10-13T02:06:15;60.72;;;32.28;;
22284;SDS011;11311;52.192;20.900;2022-10-13T02:08:52;59.58;;;35.08;;
22284;SDS011;11311;52.192;20.900;2022-10-13T02:11:24;52.90;;;32.65;;
22284;SDS011;11311;52.192;20.900;2022-10-13T02:13:56;50.38;;;30.63;;
22284;SDS011;11311;52.192;20.900;2022-10-13T02:16:29;56.10;;;31.73;;
22284;SDS011;11311;52.192;20.900;2022-10-13T02:19:01;44.40;;;29.58;;
22284;SDS011;11311;52.192;20.900;2022-10-13T02:21:31;44.80;;;27.27;;
22284;SDS011;11311;52.192;20.900;2022-10-13T02:24:01;50.90;;;27.55;;
22284;SDS011;11311;52.192;20.900;2022-10-13T02:26:30;46.35;;;28.70;;
22284;SDS011;11311;52.192;20.900;2022-10-13T02:29:08;51.63;;;30.23;;
22284;SDS011;11311;52.192;20.900;2022-10-13T02:31:39;46.90;;;27.85;;
22284;SDS011;11311;52.192;20.900;2022-10-13T02:34:08;49.58;;;31.05;;
22284;SDS011;11311;52.192;20.900;2022-10-13T02:36:37;51.22;;;28.35;;
22284;SDS011;11311;52.192;20.900;2022-10-13T02:39:07;48.47;;;29.38;;
22284;SDS011;11311;52.192;20.900;2022-10-13T02:41:36;50.85;;;31.00;;
22284;SDS011;11311;52.192;20.900;2022-10-13T02:44:05;53.13;;;30.90;;
22284;SDS011;11311;52.192;20.900;2022-10-13T02:46:40;48.35;;;28.23;;
22284;SDS011;11311;52.192;20.900;2022-10-13T02:49:09;48.50;;;30.17;;
22284;SDS011;11311;52.192;20.900;2022-10-13T02:51:38;50.60;;;33.30;;
22284;SDS011;11311;52.192;20.900;2022-10-13T02:54:06;52.05;;;32.53;;
22284;SDS011;11311;52.192;20.900;2022-10-13T02:56:35;51.75;;;33.85;;
22284;SDS011;11311;52.192;20.900;2022-10-13T02:59:04;49.05;;;33.38;;
22284;SDS011;11311;52.192;20.900;2022-10-13T03:01:32;50.70;;;33.22;;
22284;SDS011;11311;52.192;20.900;2022-10-13T03:04:03;60.88;;;35.55;;
22284;SDS011;11311;52.192;20.900;2022-10-13T03:06:31;53.50;;;34.95;;
22284;SDS011;11311;52.192;20.900;2022-10-13T03:09:00;61.80;;;36.72;;
22284;SDS011;11311;52.192;20.900;2022-10-13T03:11:29;62.08;;;37.88;;
22284;SDS011;11311;52.192;20.900;2022-10-13T03:13:57;61.38;;;38.17;;
22284;SDS011;11311;52.192;20.900;2022-10-13T03:16:26;57.42;;;37.47;;
22284;SDS011;11311;52.192;20.900;2022-10-13T03:18:54;60.83;;;37.17;;
22284;SDS011;11311;52.192;20.900;2022-10-13T03:21:24;57.08;;;36.58;;
22284;SDS011;11311;52.192;20.900;2022-10-13T03:23:53;68.28;;;39.25;;
22284;SDS011;11311;52.192;20.900;2022-10-13T03:26:23;57.30;;;35.88;;
22284;SDS011;11311;52.192;20.900;2022-10-13T03:28:51;55.17;;;36.25;;
22284;SDS011;11311;52.192;20.900;2022-10-13T03:31:20;61.60;;;37.05;;
22284;SDS011;11311;52.192;20.900;2022-10-13T03:33:49;61.67;;;37.00;;
22284;SDS011;11311;52.192;20.900;2022-10-13T03:36:17;60.33;;;34.83;;
22284;SDS011;11311;52.192;20.900;2022-10-13T03:38:49;57.58;;;36.55;;
22284;SDS011;11311;52.192;20.900;2022-10-13T03:41:18;58.00;;;36.80;;
22284;SDS011;11311;52.192;20.900;2022-10-13T03:43:48;57.45;;;37.33;;
22284;SDS011;11311;52.192;20.900;2022-10-13T03:46:17;59.78;;;35.17;;
22284;SDS011;11311;52.192;20.900;2022-10-13T03:48:46;66.03;;;36.35;;
22284;SDS011;11311;52.192;20.900;2022-10-13T03:51:15;50.50;;;35.90;;
22284;SDS011;11311;52.192;20.900;2022-10-13T03:53:49;60.78;;;35.80;;
22284;SDS011;11311;52.192;20.900;2022-10-13T03:56:19;60.58;;;36.42;;
22284;SDS011;11311;52.192;20.900;2022-10-13T03:58:51;60.40;;;33.72;;
22284;SDS011;11311;52.192;20.900;2022-10-13T04:01:21;54.63;;;35.83;;
22284;SDS011;11311;52.192;20.900;2022-10-13T04:03:51;56.80;;;35.05;;
22284;SDS011;11311;52.192;20.900;2022-10-13T04:06:21;52.50;;;33.33;;
22284;SDS011;11311;52.192;20.900;2022-10-13T04:08:52;58.67;;;35.20;;
22284;SDS011;11311;52.192;20.900;2022-10-13T04:11:21;51.45;;;33.83;;
22284;SDS011;11311;52.192;20.900;2022-10-13T04:13:50;50.65;;;32.40;;
22284;SDS011;11311;52.192;20.900;2022-10-13T04:16:19;58.15;;;35.70;;
22284;SDS011;11311;52.192;20.900;2022-10-13T04:18:50;55.80;;;34.53;;
22284;SDS011;11311;52.192;20.900;2022-10-13T04:21:20;53.50;;;35.30;;
22284;SDS011;11311;52.192;20.900;2022-10-13T04:23:49;57.10;;;35.03;;
22284;SDS011;11311;52.192;20.900;2022-10-13T04:26:20;55.47;;;33.72;;
22284;SDS011;11311;52.192;20.900;2022-10-13T04:28:50;62.50;;;36.80;;
22284;SDS011;11311;52.192;20.900;2022-10-13T04:33:49;53.28;;;35.05;;
22284;SDS011;11311;52.192;20.900;2022-10-13T04:36:18;63.00;;;37.03;;
22284;SDS011;11311;52.192;20.900;2022-10-13T04:38:49;54.42;;;35.22;;
22284;SDS011;11311;52.192;20.900;2022-10-13T04:41:17;53.53;;;36.25;;
22284;SDS011;11311;52.192;20.900;2022-10-13T04:43:47;65.50;;;37.13;;
22284;SDS011;11311;52.192;20.900;2022-10-13T04:46:18;52.42;;;35.75;;
22284;SDS011;11311;52.192;20.900;2022-10-13T04:51:18;63.60;;;33.72;;
22284;SDS011;11311;52.192;20.900;2022-10-13T04:53:52;57.88;;;35.97;;
22284;SDS011;11311;52.192;20.900;2022-10-13T04:56:23;52.60;;;35.60;;
22284;SDS011;11311;52.192;20.900;2022-10-13T05:01:21;61.50;;;36.65;;
22284;SDS011;11311;52.192;20.900;2022-10-13T05:06:21;53.35;;;32.50;;
22284;SDS011;11311;52.192;20.900;2022-10-13T05:08:54;52.42;;;32.00;;
22284;SDS011;11311;52.192;20.900;2022-10-13T05:11:25;53.03;;;32.25;;
22284;SDS011;11311;52.192;20.900;2022-10-13T05:13:56;51.38;;;32.70;;
22284;SDS011;11311;52.192;20.900;2022-10-13T05:16:26;59.88;;;32.50;;
22284;SDS011;11311;52.192;20.900;2022-10-13T05:18:56;45.85;;;30.35;;
22284;SDS011;11311;52.192;20.900;2022-10-13T05:21:25;54.20;;;33.58;;
22284;SDS011;11311;52.192;20.900;2022-10-13T05:23:55;52.95;;;32.10;;
22284;SDS011;11311;52.192;20.900;2022-10-13T05:26:27;51.90;;;30.40;;
22284;SDS011;11311;52.192;20.900;2022-10-13T05:28:58;49.92;;;31.58;;
22284;SDS011;11311;52.192;20.900;2022-10-13T05:31:30;53.35;;;30.40;;
22284;SDS011;11311;52.192;20.900;2022-10-13T05:33:59;49.03;;;32.75;;
22284;SDS011;11311;52.192;20.900;2022-10-13T05:36:29;52.67;;;32.05;;
22284;SDS011;11311;52.192;20.900;2022-10-13T05:38:59;46.25;;;30.52;;
22284;SDS011;11311;52.192;20.900;2022-10-13T05:41:30;49.63;;;31.48;;
22284;SDS011;11311;52.192;20.900;2022-10-13T05:44:01;46.22;;;30.05;;
22284;SDS011;11311;52.192;20.900;2022-10-13T05:46:30;47.33;;;28.67;;
22284;SDS011;11311;52.192;20.900;2022-10-13T05:48:59;54.03;;;29.58;;
22284;SDS011;11311;52.192;20.900;2022-10-13T05:51:29;45.83;;;29.38;;
22284;SDS011;11311;52.192;20.900;2022-10-13T05:54:05;48.92;;;30.63;;
22284;SDS011;11311;52.192;20.900;2022-10-13T05:56:38;48.03;;;28.85;;
22284;SDS011;11311;52.192;20.900;2022-10-13T05:59:09;49.40;;;30.48;;
22284;SDS011;11311;52.192;20.900;2022-10-13T06:01:43;47.92;;;29.80;;
22284;SDS011;11311;52.192;20.900;2022-10-13T06:04:13;44.72;;;27.67;;
22284;SDS011;11311;52.192;20.900;2022-10-13T06:06:48;52.42;;;28.45;;
22284;SDS011;11311;52.192;20.900;2022-10-13T06:09:17;50.15;;;28.02;;
22284;SDS011;11311;52.192;20.900;2022-10-13T06:11:48;45.83;;;27.63;;
22284;SDS011;11311;52.192;20.900;2022-10-13T06:14:16;50.67;;;28.98;;
22284;SDS011;11311;52.192;20.900;2022-10-13T06:16:45;47.90;;;29.25;;
22284;SDS011;11311;52.192;20.900;2022-10-13T06:19:13;43.95;;;26.45;;
22284;SDS011;11311;52.192;20.900;2022-10-13T06:21:42;40.72;;;25.23;;
22284;SDS011;11311;52.192;20.900;2022-10-13T06:24:11;43.45;;;24.30;;
22284;SDS011;11311;52.192;20.900;2022-10-13T06:26:39;37.80;;;23.98;;
22284;SDS011;11311;52.192;20.900;2022-10-13T06:29:10;38.90;;;23.50;;
22284;SDS011;11311;52.192;20.900;2022-10-13T06:31:38;42.30;;;22.42;;
22284;SDS011;11311;52.192;20.900;2022-10-13T06:34:07;33.97;;;21.92;;
22284;SDS011;11311;52.192;20.900;2022-10-13T06:36:36;31.35;;;21.73;;
22284;SDS011;11311;52.192;20.900;2022-10-13T06:39:04;37.08;;;23.17;;
22284;SDS011;11311;52.192;20.900;2022-10-13T06:41:33;36.78;;;24.67;;
22284;SDS011;11311;52.192;20.900;2022-10-13T06:44:01;38.13;;;22.85;;
22284;SDS011;11311;52.192;20.900;2022-10-13T06:46:32;35.20;;;23.08;;
22284;SDS011;11311;52.192;20.900;2022-10-13T06:49:00;39.92;;;23.02;;
22284;SDS011;11311;52.192;20.900;2022-10-13T06:51:29;38.72;;;22.67;;
22284;SDS011;11311;52.192;20.900;2022-10-13T06:53:58;45.25;;;24.52;;
22284;SDS011;11311;52.192;20.900;2022-10-13T06:56:27;39.25;;;22.02;;
22284;SDS011;11311;52.192;20.900;2022-10-13T06:58:57;32.28;;;19.95;;
22284;SDS011;11311;52.192;20.900;2022-10-13T07:01:26;30.02;;;16.75;;
22284;SDS011;11311;52.192;20.900;2022-10-13T07:03:56;34.67;;;18.17;;
22284;SDS011;11311;52.192;20.900;2022-10-13T07:06:24;33.10;;;18.40;;
22284;SDS011;11311;52.192;20.900;2022-10-13T07:08:54;30.37;;;14.20;;
22284;SDS011;11311;52.192;20.900;2022-10-13T07:11:23;35.47;;;13.55;;
22284;SDS011;11311;52.192;20.900;2022-10-13T07:13:55;26.60;;;13.93;;
22284;SDS011;11311;52.192;20.900;2022-10-13T07:16:23;30.10;;;15.73;;
22284;SDS011;11311;52.192;20.900;2022-10-13T07:18:52;33.88;;;16.02;;
22284;SDS011;11311;52.192;20.900;2022-10-13T07:21:22;35.58;;;16.65;;
22284;SDS011;11311;52.192;20.900;2022-10-13T07:23:51;29.17;;;13.98;;
22284;SDS011;11311;52.192;20.900;2022-10-13T07:26:19;32.30;;;16.48;;
22284;SDS011;11311;52.192;20.900;2022-10-13T07:28:48;31.30;;;15.70;;
22284;SDS011;11311;52.192;20.900;2022-10-13T07:31:18;30.13;;;17.05;;
22284;SDS011;11311;52.192;20.900;2022-10-13T07:33:47;27.85;;;15.05;;
22284;SDS011;11311;52.192;20.900;2022-10-13T07:36:17;32.67;;;15.95;;
22284;SDS011;11311;52.192;20.900;2022-10-13T07:38:47;24.90;;;14.95;;
22284;SDS011;11311;52.192;20.900;2022-10-13T07:41:16;22.33;;;13.07;;
22284;SDS011;11311;52.192;20.900;2022-10-13T07:43:45;29.27;;;15.13;;
22284;SDS011;11311;52.192;20.900;2022-10-13T07:46:14;40.92;;;14.25;;
22284;SDS011;11311;52.192;20.900;2022-10-13T07:48:42;28.38;;;12.88;;
22284;SDS011;11311;52.192;20.900;2022-10-13T07:51:11;27.83;;;12.52;;
22284;SDS011;11311;52.192;20.900;2022-10-13T07:53:41;34.35;;;14.40;;
22284;SDS011;11311;52.192;20.900;2022-10-13T07:56:12;25.95;;;13.38;;
22284;SDS011;11311;52.192;20.900;2022-10-13T07:58:42;23.70;;;12.07;;
22284;SDS011;11311;52.192;20.900;2022-10-13T08:01:13;22.77;;;13.00;;
22284;SDS011;11311;52.192;20.900;2022-10-13T08:03:43;23.60;;;10.60;;
22284;SDS011;11311;52.192;20.900;2022-10-13T08:06:17;25.25;;;11.20;;
22284;SDS011;11311;52.192;20.900;2022-10-13T08:08:49;23.52;;;10.02;;
22284;SDS011;11311;52.192;20.900;2022-10-13T08:11:21;26.52;;;12.43;;
22284;SDS011;11311;52.192;20.900;2022-10-13T08:13:50;22.95;;;11.68;;
22284;SDS011;11311;52.192;20.900;2022-10-13T08:16:22;18.73;;;11.15;;
22284;SDS011;11311;52.192;20.900;2022-10-13T08:18:51;23.45;;;10.38;;
22284;SDS011;11311;52.192;20.900;2022-10-13T08:21:20;21.98;;;10.52;;
22284;SDS011;11311;52.192;20.900;2022-10-13T08:24:10;22.60;;;11.25;;
22284;SDS011;11311;52.192;20.900;2022-10-13T08:26:42;22.52;;;11.43;;
22284;SDS011;11311;52.192;20.900;2022-10-13T08:29:12;18.75;;;9.88;;
22284;SDS011;11311;52.192;20.900;2022-10-13T08:31:48;29.70;;;9.88;;
22284;SDS011;11311;52.192;20.900;2022-10-13T08:34:18;16.80;;;8.98;;
22284;SDS011;11311;52.192;20.900;2022-10-13T08:36:47;18.05;;;8.90;;
22284;SDS011;11311;52.192;20.900;2022-10-13T08:39:19;18.25;;;9.13;;
22284;SDS011;11311;52.192;20.900;2022-10-13T08:41:50;15.65;;;8.20;;
22284;SDS011;11311;52.192;20.900;2022-10-13T08:44:21;17.35;;;9.00;;
22284;SDS011;11311;52.192;20.900;2022-10-13T08:47:13;19.85;;;8.30;;
22284;SDS011;11311;52.192;20.900;2022-10-13T08:49:46;16.48;;;8.80;;
22284;SDS011;11311;52.192;20.900;2022-10-13T08:52:15;24.88;;;10.15;;
22284;SDS011;11311;52.192;20.900;2022-10-13T08:54:47;15.93;;;9.20;;
22284;SDS011;11311;52.192;20.900;2022-10-13T08:57:20;19.40;;;8.57;;
22284;SDS011;11311;52.192;20.900;2022-10-13T08:59:49;19.80;;;8.73;;
22284;SDS011;11311;52.192;20.900;2022-10-13T09:02:21;19.88;;;9.65;;
22284;SDS011;11311;52.192;20.900;2022-10-13T09:04:52;19.35;;;8.07;;
22284;SDS011;11311;52.192;20.900;2022-10-13T09:07:22;18.10;;;7.75;;
22284;SDS011;11311;52.192;20.900;2022-10-13T09:09:52;17.45;;;8.25;;
22284;SDS011;11311;52.192;20.900;2022-10-13T09:12:25;23.45;;;8.40;;
22284;SDS011;11311;52.192;20.900;2022-10-13T09:14:57;21.40;;;6.82;;
22284;SDS011;11311;52.192;20.900;2022-10-13T09:17:28;18.15;;;6.50;;
22284;SDS011;11311;52.192;20.900;2022-10-13T09:19:58;18.63;;;9.48;;
22284;SDS011;11311;52.192;20.900;2022-10-13T09:22:30;18.58;;;9.30;;
22284;SDS011;11311;52.192;20.900;2022-10-13T09:25:15;15.32;;;8.43;;
22284;SDS011;11311;52.192;20.900;2022-10-13T09:27:48;13.50;;;7.32;;
22284;SDS011;11311;52.192;20.900;2022-10-13T09:30:25;16.67;;;8.00;;
22284;SDS011;11311;52.192;20.900;2022-10-13T09:33:18;16.10;;;7.97;;
22284;SDS011;11311;52.192;20.900;2022-10-13T09:36:04;22.02;;;8.55;;
22284;SDS011;11311;52.192;20.900;2022-10-13T09:38:37;15.77;;;8.80;;
22284;SDS011;11311;52.192;20.900;2022-10-13T09:41:11;8.98;;;5.47;;
22284;SDS011;11311;52.192;20.900;2022-10-13T09:43:55;16.75;;;6.45;;
22284;SDS011;11311;52.192;20.900;2022-10-13T09:46:27;15.15;;;6.70;;
22284;SDS011;11311;52.192;20.900;2022-10-13T09:48:58;8.35;;;5.32;;
22284;SDS011;11311;52.192;20.900;2022-10-13T09:51:32;12.77;;;5.90;;
22284;SDS011;11311;52.192;20.900;2022-10-13T09:54:24;13.50;;;6.25;;
22284;SDS011;11311;52.192;20.900;2022-10-13T09:56:55;21.27;;;6.65;;
22284;SDS011;11311;52.192;20.900;2022-10-13T09:59:30;11.30;;;6.03;;
22284;SDS011;11311;52.192;20.900;2022-10-13T10:02:01;11.77;;;4.95;;
22284;SDS011;11311;52.192;20.900;2022-10-13T10:04:36;12.00;;;5.88;;
22284;SDS011;11311;52.192;20.900;2022-10-13T10:07:11;9.40;;;4.63;;
22284;SDS011;11311;52.192;20.900;2022-10-13T10:09:43;11.15;;;3.83;;
22284;SDS011;11311;52.192;20.900;2022-10-13T10:12:17;11.10;;;4.70;;
22284;SDS011;11311;52.192;20.900;2022-10-13T10:14:55;10.02;;;3.50;;
22284;SDS011;11311;52.192;20.900;2022-10-13T10:17:26;10.63;;;4.28;;
22284;SDS011;11311;52.192;20.900;2022-10-13T10:20:00;13.73;;;4.68;;
22284;SDS011;11311;52.192;20.900;2022-10-13T10:22:35;8.48;;;3.88;;
22284;SDS011;11311;52.192;20.900;2022-10-13T10:25:12;9.48;;;3.90;;
22284;SDS011;11311;52.192;20.900;2022-10-13T10:27:48;13.40;;;4.63;;
22284;SDS011;11311;52.192;20.900;2022-10-13T10:30:24;11.70;;;4.30;;
22284;SDS011;11311;52.192;20.900;2022-10-13T10:32:56;11.27;;;4.25;;
22284;SDS011;11311;52.192;20.900;2022-10-13T10:35:31;9.25;;;3.75;;
22284;SDS011;11311;52.192;20.900;2022-10-13T10:38:10;10.75;;;4.10;;
22284;SDS011;11311;52.192;20.900;2022-10-13T10:40:48;12.35;;;3.60;;
22284;SDS011;11311;52.192;20.900;2022-10-13T10:43:22;7.38;;;3.15;;
22284;SDS011;11311;52.192;20.900;2022-10-13T10:45:59;13.27;;;4.50;;
22284;SDS011;11311;52.192;20.900;2022-10-13T10:48:30;8.90;;;3.35;;
22284;SDS011;11311;52.192;20.900;2022-10-13T10:51:02;12.05;;;3.60;;
22284;SDS011;11311;52.192;20.900;2022-10-13T10:53:35;14.82;;;4.32;;
22284;SDS011;11311;52.192;20.900;2022-10-13T10:56:07;10.25;;;4.07;;
22284;SDS011;11311;52.192;20.900;2022-10-13T10:58:41;11.30;;;4.15;;
22284;SDS011;11311;52.192;20.900;2022-10-13T11:01:18;10.85;;;3.22;;
22284;SDS011;11311;52.192;20.900;2022-10-13T11:03:55;7.97;;;3.58;;
22284;SDS011;11311;52.192;20.900;2022-10-13T11:06:31;5.88;;;3.15;;
22284;SDS011;11311;52.192;20.900;2022-10-13T11:09:02;10.02;;;4.65;;
22284;SDS011;11311;52.192;20.900;2022-10-13T11:11:32;12.02;;;3.83;;
22284;SDS011;11311;52.192;20.900;2022-10-13T11:14:24;10.10;;;4.50;;
22284;SDS011;11311;52.192;20.900;2022-10-13T11:19:48;10.77;;;4.13;;
22284;SDS011;11311;52.192;20.900;2022-10-13T11:22:18;9.88;;;4.45;;
22284;SDS011;11311;52.192;20.900;2022-10-13T11:24:54;10.35;;;4.13;;
22284;SDS011;11311;52.192;20.900;2022-10-13T11:27:25;18.75;;;3.42;;
22284;SDS011;11311;52.192;20.900;2022-10-13T11:29:56;9.73;;;5.10;;
22284;SDS011;11311;52.192;20.900;2022-10-13T11:32:45;13.77;;;6.35;;
22284;SDS011;11311;52.192;20.900;2022-10-13T11:35:24;14.77;;;5.57;;
22284;SDS011;11311;52.192;20.900;2022-10-13T11:37:58;7.88;;;4.03;;
22284;SDS011;11311;52.192;20.900;2022-10-13T11:40:34;9.63;;;4.32;;
22284;SDS011;11311;52.192;20.900;2022-10-13T11:43:14;6.03;;;3.13;;
22284;SDS011;11311;52.192;20.900;2022-10-13T11:49:17;10.85;;;5.57;;
22284;SDS011;11311;52.192;20.900;2022-10-13T11:57:39;12.57;;;7.78;;
22284;SDS011;11311;52.192;20.900;2022-10-13T12:00:12;11.27;;;4.93;;
22284;SDS011;11311;52.192;20.900;2022-10-13T12:02:48;12.70;;;5.25;;
22284;SDS011;11311;52.192;20.900;2022-10-13T12:05:21;7.60;;;3.55;;
22284;SDS011;11311;52.192;20.900;2022-10-13T12:07:51;5.78;;;3.60;;
22284;SDS011;11311;52.192;20.900;2022-10-13T12:10:22;7.45;;;4.18;;
22284;SDS011;11311;52.192;20.900;2022-10-13T12:12:53;11.32;;;5.05;;
22284;SDS011;11311;52.192;20.900;2022-10-13T12:15:27;10.65;;;4.65;;
22284;SDS011;11311;52.192;20.900;2022-10-13T12:17:58;9.57;;;3.75;;
22284;SDS011;11311;52.192;20.900;2022-10-13T12:22:58;12.35;;;4.40;;
22284;SDS011;11311;52.192;20.900;2022-10-13T12:25:28;9.30;;;4.05;;
22284;SDS011;11311;52.192;20.900;2022-10-13T12:27:59;7.88;;;3.47;;
22284;SDS011;11311;52.192;20.900;2022-10-13T12:30:30;9.60;;;3.92;;
22284;SDS011;11311;52.192;20.900;2022-10-13T12:33:03;7.88;;;4.15;;
22284;SDS011;11311;52.192;20.900;2022-10-13T12:35:43;10.38;;;4.75;;
22284;SDS011;11311;52.192;20.900;2022-10-13T12:38:14;13.60;;;4.68;;
22284;SDS011;11311;52.192;20.900;2022-10-13T12:40:45;10.25;;;4.15;;
22284;SDS011;11311;52.192;20.900;2022-10-13T12:43:15;7.93;;;2.75;;
22284;SDS011;11311;52.192;20.900;2022-10-13T12:45:48;8.32;;;4.53;;
22284;SDS011;11311;52.192;20.900;2022-10-13T12:48:32;15.15;;;4.90;;
22284;SDS011;11311;52.192;20.900;2022-10-13T12:53:54;12.15;;;4.32;;
22284;SDS011;11311;52.192;20.900;2022-10-13T12:56:25;9.57;;;4.43;;
22284;SDS011;11311;52.192;20.900;2022-10-13T12:58:54;16.52;;;5.40;;
22284;SDS011;11311;52.192;20.900;2022-10-13T13:01:27;10.38;;;5.25;;
22284;SDS011;11311;52.192;20.900;2022-10-13T13:03:58;17.23;;;5.82;;
22284;SDS011;11311;52.192;20.900;2022-10-13T13:06:34;16.98;;;6.95;;
22284;SDS011;11311;52.192;20.900;2022-10-13T13:09:15;10.18;;;5.15;;
22284;SDS011;11311;52.192;20.900;2022-10-13T13:11:48;8.05;;;4.55;;
22284;SDS011;11311;52.192;20.900;2022-10-13T13:14:30;16.83;;;5.30;;
22284;SDS011;11311;52.192;20.900;2022-10-13T13:17:04;12.75;;;5.22;;
22284;SDS011;11311;52.192;20.900;2022-10-13T13:19:35;10.82;;;5.63;;
22284;SDS011;11311;52.192;20.900;2022-10-13T13:22:06;17.02;;;6.05;;
22284;SDS011;11311;52.192;20.900;2022-10-13T13:24:36;18.63;;;6.15;;
22284;SDS011;11311;52.192;20.900;2022-10-13T13:27:15;10.68;;;5.15;;
22284;SDS011;11311;52.192;20.900;2022-10-13T13:29:48;20.93;;;5.27;;
22284;SDS011;11311;52.192;20.900;2022-10-13T13:32:18;10.75;;;5.20;;
22284;SDS011;11311;52.192;20.900;2022-10-13T13:34:48;13.52;;;4.45;;
22284;SDS011;11311;52.192;20.900;2022-10-13T13:37:27;20.95;;;6.32;;
22284;SDS011;11311;52.192;20.900;2022-10-13T13:39:59;8.82;;;4.80;;
22284;SDS011;11311;52.192;20.900;2022-10-13T13:42:30;18.40;;;5.72;;
22284;SDS011;11311;52.192;20.900;2022-10-13T13:47:30;11.48;;;4.78;;
22284;SDS011;11311;52.192;20.900;2022-10-13T13:49:59;14.02;;;5.28;;
22284;SDS011;11311;52.192;20.900;2022-10-13T13:52:29;17.35;;;5.47;;
22284;SDS011;11311;52.192;20.900;2022-10-13T13:57:26;13.00;;;5.93;;
22284;SDS011;11311;52.192;20.900;2022-10-13T13:59:55;8.77;;;4.82;;
22284;SDS011;11311;52.192;20.900;2022-10-13T14:02:23;10.32;;;5.40;;
22284;SDS011;11311;52.192;20.900;2022-10-13T14:04:52;10.43;;;5.05;;
22284;SDS011;11311;52.192;20.900;2022-10-13T14:07:21;11.45;;;5.28;;
22284;SDS011;11311;52.192;20.900;2022-10-13T14:09:51;13.35;;;5.28;;
22284;SDS011;11311;52.192;20.900;2022-10-13T14:12:27;12.27;;;5.47;;
22284;SDS011;11311;52.192;20.900;2022-10-13T14:14:56;11.57;;;5.05;;
22284;SDS011;11311;52.192;20.900;2022-10-13T14:17:25;10.25;;;5.32;;
22284;SDS011;11311;52.192;20.900;2022-10-13T14:19:55;16.85;;;5.60;;
22284;SDS011;11311;52.192;20.900;2022-10-13T14:22:23;12.75;;;4.43;;
22284;SDS011;11311;52.192;20.900;2022-10-13T14:24:56;12.75;;;5.28;;
22284;SDS011;11311;52.192;20.900;2022-10-13T14:29:54;8.77;;;4.90;;
22284;SDS011;11311;52.192;20.900;2022-10-13T14:32:23;17.15;;;6.10;;
22284;SDS011;11311;52.192;20.900;2022-10-13T14:34:52;13.73;;;5.95;;
22284;SDS011;11311;52.192;20.900;2022-10-13T14:37:20;13.77;;;6.00;;
22284;SDS011;11311;52.192;20.900;2022-10-13T14:39:53;13.23;;;6.10;;
22284;SDS011;11311;52.192;20.900;2022-10-13T14:42:23;12.57;;;5.28;;
22284;SDS011;11311;52.192;20.900;2022-10-13T14:44:52;10.18;;;5.00;;
22284;SDS011;11311;52.192;20.900;2022-10-13T14:47:21;19.10;;;6.00;;
22284;SDS011;11311;52.192;20.900;2022-10-13T14:49:49;25.73;;;6.43;;
22284;SDS011;11311;52.192;20.900;2022-10-13T14:52:18;18.73;;;6.38;;
22284;SDS011;11311;52.192;20.900;2022-10-13T14:54:47;16.00;;;6.20;;
22284;SDS011;11311;52.192;20.900;2022-10-13T14:57:15;14.88;;;5.80;;
22284;SDS011;11311;52.192;20.900;2022-10-13T14:59:46;25.83;;;6.80;;
22284;SDS011;11311;52.192;20.900;2022-10-13T15:02:15;18.27;;;7.28;;
22284;SDS011;11311;52.192;20.900;2022-10-13T15:04:51;17.95;;;6.65;;
22284;SDS011;11311;52.192;20.900;2022-10-13T15:07:20;14.65;;;5.47;;
22284;SDS011;11311;52.192;20.900;2022-10-13T15:09:49;15.95;;;6.45;;
22284;SDS011;11311;52.192;20.900;2022-10-13T15:12:31;13.48;;;5.97;;
22284;SDS011;11311;52.192;20.900;2022-10-13T15:15:01;14.65;;;5.60;;
22284;SDS011;11311;52.192;20.900;2022-10-13T15:17:30;16.40;;;6.20;;